Time;durP1;ratioP1;P1;durP2;ratioP2;P2;SDS_P1;SDS_P2;PMS_P1;PMS_P2;Temp;Humidity;BMP_temperature;BMP_pressure;BME280_temperature;BME280_humidity;BME280_pressure;Samples;Min_cycle;Max_cycle;Signal;HPM_P1;HPM_P2
2022/10/30 00:00:38;;;;;;;8.93;6.93;;;11.60;99.90;11.50;100954.00;;;;4919586;28;87844;-65
2022/10/30 00:03:04;;;;;;;8.23;6.47;;;11.60;99.90;11.50;100958.00;;;;4924785;28;100938;-64
2022/10/30 00:05:29;;;;;;;9.93;7.53;;;11.60;99.90;11.50;100950.00;;;;4921406;28;118080;-65
2022/10/30 00:07:56;;;;;;;14.97;9.20;;;11.50;99.90;11.50;100954.00;;;;4919830;28;88941;-65
2022/10/30 00:10:22;;;;;;;12.53;8.47;;;11.60;99.90;11.50;100947.00;;;;4922768;28;87815;-65
2022/10/30 00:12:48;;;;;;;12.57;7.53;;;11.50;99.90;11.50;100947.00;;;;4922125;28;87091;-66
2022/10/30 00:15:14;;;;;;;14.33;8.87;;;11.50;99.90;11.40;100942.00;;;;4921672;28;117115;-66
2022/10/30 00:17:39;;;;;;;14.20;8.03;;;11.50;99.90;11.40;100946.00;;;;4926199;28;108633;-65
2022/10/30 00:20:06;;;;;;;10.13;7.17;;;11.60;99.90;11.40;100941.00;;;;4917638;28;111172;-65
2022/10/30 00:22:34;;;;;;;9.77;6.87;;;11.50;99.90;11.40;100932.00;;;;4922216;28;87699;-65
2022/10/30 00:24:59;;;;;;;13.03;8.27;;;11.50;99.90;11.40;100920.00;;;;4925045;28;109023;-65
2022/10/30 00:27:26;;;;;;;15.10;8.30;;;11.50;99.90;11.40;100924.00;;;;4926010;28;116862;-65
2022/10/30 00:29:52;;;;;;;13.87;9.43;;;11.40;99.90;11.40;100914.00;;;;4918173;28;99892;-65
2022/10/30 00:32:17;;;;;;;10.70;7.90;;;11.50;99.90;11.40;100920.00;;;;4920269;28;107762;-64
2022/10/30 00:34:43;;;;;;;15.97;8.60;;;11.40;99.90;11.40;100925.00;;;;4920843;28;116725;-65
2022/10/30 00:37:09;;;;;;;17.63;9.10;;;11.50;99.90;11.40;100922.00;;;;4919842;28;92035;-65
2022/10/30 00:39:35;;;;;;;14.03;10.70;;;11.40;99.90;11.40;100919.00;;;;4928118;28;87741;-65
2022/10/30 00:42:01;;;;;;;17.10;7.87;;;11.50;99.90;11.50;100919.00;;;;4917615;28;87770;-65
2022/10/30 00:44:48;;;;;;;10.03;6.87;;;11.50;99.90;11.50;100921.00;;;;4921724;28;117860;-65
2022/10/30 00:47:26;;;;;;;17.73;8.70;;;11.50;99.90;11.50;100919.00;;;;4914879;28;87998;-65
2022/10/30 00:50:02;;;;;;;11.73;6.70;;;11.50;99.90;11.50;100913.00;;;;4922200;28;87786;-65
2022/10/30 00:52:33;;;;;;;8.80;6.47;;;11.60;99.90;11.60;100916.00;;;;4920615;28;87870;-65
2022/10/30 00:55:15;;;;;;;10.53;6.00;;;11.60;99.90;11.60;100927.00;;;;4917576;28;91622;-65
2022/10/30 00:57:42;;;;;;;9.23;7.27;;;11.70;99.90;11.70;100927.00;;;;4916663;28;110991;-65
2022/10/30 01:00:09;;;;;;;9.50;7.30;;;11.30;99.90;11.70;100921.00;;;;4926375;28;110642;-65
2022/10/30 01:02:36;;;;;;;10.37;6.43;;;11.70;99.90;11.70;100922.00;;;;4920814;28;100917;-65
2022/10/30 01:05:03;;;;;;;10.87;7.57;;;11.70;99.90;11.70;100927.00;;;;4921666;28;101482;-65
2022/10/30 01:07:29;;;;;;;11.23;7.00;;;11.70;99.90;11.70;100920.00;;;;4926329;28;109616;-65
2022/10/30 01:09:55;;;;;;;12.50;8.57;;;11.80;99.90;11.80;100918.00;;;;4926725;28;109533;-65
2022/10/30 01:12:20;;;;;;;12.80;7.33;;;11.80;99.90;11.80;100919.00;;;;4921589;28;107747;-65
2022/10/30 01:14:53;;;;;;;10.33;7.80;;;11.80;99.90;11.80;100917.00;;;;4920624;28;118632;-65
2022/10/30 01:17:39;;;;;;;18.33;8.00;;;11.80;99.90;11.80;100908.00;;;;4919897;28;102679;-65
2022/10/30 01:20:36;;;;;;;11.73;7.17;;;11.80;99.90;11.80;100906.00;;;;4925855;28;87916;-65
2022/10/30 01:23:41;;;;;;;9.57;7.10;;;11.80;99.90;11.80;100909.00;;;;4927898;28;101448;-66
2022/10/30 01:26:31;;;;;;;11.63;7.27;;;11.80;99.90;11.80;100912.00;;;;4918922;28;88946;-65
2022/10/30 01:29:25;;;;;;;13.63;7.80;;;11.90;99.90;11.90;100901.00;;;;4921040;28;111234;-65
2022/10/30 01:32:03;;;;;;;10.73;7.33;;;11.90;99.90;11.90;100902.00;;;;4921625;28;87900;-65
2022/10/30 01:34:52;;;;;;;13.30;7.23;;;11.90;99.90;11.80;100901.00;;;;4926405;28;87652;-65
2022/10/30 01:37:33;;;;;;;12.27;7.97;;;11.90;99.90;11.80;100898.00;;;;4916044;28;107450;-66
2022/10/30 01:40:13;;;;;;;10.73;7.87;;;11.90;99.90;11.80;100893.00;;;;4920881;28;88124;-64
2022/10/30 01:42:45;;;;;;;14.57;9.03;;;11.80;99.90;11.70;100885.00;;;;4926248;28;88219;-64
2022/10/30 01:45:38;;;;;;;7.63;6.60;;;11.80;99.90;11.70;100877.00;;;;4932179;28;87854;-65
2022/10/30 01:48:49;;;;;;;13.13;8.17;;;11.80;99.90;11.70;100877.00;;;;4919587;28;87876;-65
2022/10/30 01:51:56;;;;;;;9.23;6.33;;;11.70;99.90;11.70;100888.00;;;;4918764;28;95501;-64
2022/10/30 01:54:36;;;;;;;10.97;6.93;;;11.70;99.90;11.70;100872.00;;;;4921110;28;87924;-66
2022/10/30 01:57:41;;;;;;;14.07;7.37;;;11.70;99.90;11.70;100871.00;;;;4920855;28;103074;-65
2022/10/30 02:00:14;;;;;;;10.50;7.73;;;11.80;99.90;11.80;100860.00;;;;4920185;28;88205;-65
2022/10/30 02:02:41;;;;;;;9.57;6.57;;;11.80;99.90;11.80;100865.00;;;;4919060;28;88032;-65
2022/10/30 02:05:11;;;;;;;9.53;5.87;;;11.80;99.90;11.80;100858.00;;;;4929847;28;111036;-65
2022/10/30 02:07:37;;;;;;;6.50;5.30;;;11.80;99.90;11.80;100859.00;;;;4921059;28;87645;-65
2022/10/30 02:10:04;;;;;;;8.40;5.60;;;11.80;99.90;11.90;100858.00;;;;4918443;28;115063;-64
2022/10/30 02:12:30;;;;;;;8.77;5.70;;;11.90;99.90;11.90;100860.00;;;;4923864;28;99308;-66
2022/10/30 02:14:59;;;;;;;10.87;5.33;;;11.90;99.90;11.90;100853.00;;;;4918253;28;109913;-65
2022/10/30 02:17:27;;;;;;;5.63;4.20;;;11.90;99.90;11.90;100861.00;;;;4925340;28;108876;-65
2022/10/30 02:19:52;;;;;;;22.30;5.83;;;11.90;99.90;11.90;100863.00;;;;4924178;28;88146;-65
2022/10/30 02:22:18;;;;;;;8.23;5.87;;;11.90;99.90;12.00;100865.00;;;;4917589;28;116752;-65
2022/10/30 02:24:44;;;;;;;5.73;5.17;;;12.00;99.90;12.00;100869.00;;;;4925775;28;108078;-65
2022/10/30 02:27:10;;;;;;;7.70;6.17;;;12.00;99.90;12.00;100866.00;;;;4930514;28;87590;-66
2022/10/30 02:29:36;;;;;;;7.67;6.13;;;12.00;99.90;12.00;100871.00;;;;4922380;28;116979;-65
2022/10/30 02:32:02;;;;;;;6.70;6.00;;;12.00;99.90;12.00;100875.00;;;;4916930;28;117472;-65
2022/10/30 02:34:28;;;;;;;12.10;6.03;;;12.00;99.90;12.00;100867.00;;;;4923926;28;87996;-65
2022/10/30 02:36:53;;;;;;;13.33;7.67;;;12.00;99.90;12.10;100876.00;;;;4923318;28;93493;-66
2022/10/30 02:39:20;;;;;;;12.70;6.20;;;12.10;99.90;12.10;100877.00;;;;4924316;28;117520;-66
2022/10/30 02:41:47;;;;;;;7.27;6.47;;;12.10;99.90;12.00;100866.00;;;;4920411;28;89192;-66
2022/10/30 02:44:12;;;;;;;12.37;6.97;;;12.10;99.90;12.00;100870.00;;;;4922280;28;87771;-65
2022/10/30 02:46:38;;;;;;;9.10;7.17;;;12.00;99.90;12.00;100870.00;;;;4924455;28;109004;-65
2022/10/30 02:49:04;;;;;;;10.13;7.23;;;12.00;99.90;12.00;100873.00;;;;4929515;28;117853;-66
2022/10/30 02:51:31;;;;;;;14.70;9.87;;;12.00;99.90;12.00;100877.00;;;;4917308;28;111601;-66
2022/10/30 02:53:58;;;;;;;12.17;10.87;;;12.00;99.90;12.00;100872.00;;;;4921110;28;88737;-66
2022/10/30 02:56:24;;;;;;;22.33;13.83;;;12.00;99.90;12.00;100873.00;;;;4919690;28;87636;-66
2022/10/30 02:58:50;;;;;;;20.00;12.87;;;12.00;99.90;12.00;100873.00;;;;4921125;28;117078;-67
2022/10/30 03:01:18;;;;;;;19.60;12.80;;;12.00;99.90;12.00;100868.00;;;;4923233;28;118447;-65
2022/10/30 03:03:45;;;;;;;21.73;10.03;;;12.00;99.90;12.00;100875.00;;;;4928423;28;87871;-65
2022/10/30 03:06:14;;;;;;;14.67;10.07;;;12.00;99.90;12.00;100881.00;;;;4920427;28;87911;-66
2022/10/30 03:08:41;;;;;;;16.43;11.97;;;12.00;99.90;12.00;100872.00;;;;4921728;28;88773;-66
2022/10/30 03:11:14;;;;;;;21.20;11.53;;;12.00;99.90;12.00;100868.00;;;;4926346;28;88124;-65
2022/10/30 03:13:40;;;;;;;18.93;11.10;;;12.00;99.90;11.90;100865.00;;;;4923237;28;87836;-66
2022/10/30 03:16:13;;;;;;;21.67;11.47;;;12.00;99.90;11.90;100873.00;;;;4919859;28;89299;-66
2022/10/30 03:18:40;;;;;;;15.40;10.93;;;12.00;99.90;12.00;100865.00;;;;4914354;28;102182;-64
2022/10/30 03:21:08;;;;;;;10.60;8.20;;;12.00;99.90;12.00;100864.00;;;;4920865;28;114336;-64
2022/10/30 03:23:34;;;;;;;17.07;10.03;;;11.90;99.90;12.00;100869.00;;;;4932133;28;87781;-64
2022/10/30 03:26:00;;;;;;;16.90;10.50;;;12.00;99.90;12.00;100873.00;;;;4926024;28;97159;-65
2022/10/30 03:28:29;;;;;;;17.77;9.80;;;12.00;99.90;12.00;100866.00;;;;4920132;28;87794;-65
2022/10/30 03:31:08;;;;;;;16.10;9.53;;;12.00;99.90;12.00;100854.00;;;;4921391;28;87999;-65
2022/10/30 03:33:35;;;;;;;21.30;11.97;;;12.10;99.90;12.10;100845.00;;;;4919796;28;104405;-64
2022/10/30 03:36:03;;;;;;;20.40;9.03;;;12.10;99.90;12.10;100854.00;;;;4921306;28;86999;-64
2022/10/30 03:38:28;;;;;;;18.03;8.97;;;12.10;99.90;12.10;100845.00;;;;4918921;28;107034;-65
2022/10/30 03:40:54;;;;;;;15.50;8.23;;;12.00;99.90;12.10;100836.00;;;;4916101;28;117598;-66
2022/10/30 03:43:21;;;;;;;13.20;8.23;;;12.10;99.90;12.10;100834.00;;;;4924686;28;102458;-66
2022/10/30 03:45:52;;;;;;;15.77;7.93;;;12.10;99.90;12.10;100825.00;;;;4926859;28;88041;-65
2022/10/30 03:48:23;;;;;;;14.80;7.60;;;12.10;99.90;12.10;100836.00;;;;4917742;28;88696;-65
2022/10/30 03:50:51;;;;;;;16.13;10.00;;;12.10;99.90;12.10;100848.00;;;;4919295;28;88834;-65
2022/10/30 03:53:17;;;;;;;17.67;11.17;;;12.10;99.90;12.10;100852.00;;;;4923875;28;103599;-65
2022/10/30 03:55:42;;;;;;;21.13;10.00;;;12.10;99.90;12.10;100833.00;;;;4919661;28;109053;-65
2022/10/30 03:58:08;;;;;;;15.23;9.10;;;12.10;99.90;12.00;100825.00;;;;4925524;28;116770;-65
2022/10/30 04:00:35;;;;;;;19.67;10.17;;;12.10;99.90;12.00;100822.00;;;;4916687;28;116314;-65
2022/10/30 04:03:01;;;;;;;15.40;8.67;;;12.00;99.90;12.00;100848.00;;;;4920872;28;87906;-65
2022/10/30 04:05:27;;;;;;;20.27;9.33;;;12.00;99.90;12.00;100858.00;;;;4927041;28;109202;-65
2022/10/30 04:07:59;;;;;;;13.77;9.53;;;12.00;99.90;12.00;100858.00;;;;4924472;28;118528;-65
2022/10/30 04:10:25;;;;;;;13.10;7.77;;;12.00;99.90;12.00;100849.00;;;;4919064;28;88927;-65
2022/10/30 04:12:53;;;;;;;13.93;9.27;;;12.00;99.90;12.00;100835.00;;;;4917892;28;103422;-65
2022/10/30 04:15:19;;;;;;;14.47;9.27;;;12.00;99.90;12.00;100822.00;;;;4921766;28;87904;-64
2022/10/30 04:17:50;;;;;;;11.37;8.00;;;12.00;99.90;11.90;100819.00;;;;4922064;28;115577;-66
2022/10/30 04:20:19;;;;;;;13.87;8.80;;;11.90;99.90;11.90;100830.00;;;;4925221;28;87979;-65
2022/10/30 04:22:45;;;;;;;11.80;8.13;;;11.90;99.90;11.90;100839.00;;;;4921078;28;99336;-65
2022/10/30 04:25:11;;;;;;;9.73;6.23;;;11.90;99.90;11.90;100832.00;;;;4921600;28;93069;-65
2022/10/30 04:27:44;;;;;;;9.63;6.90;;;11.90;99.90;11.80;100843.00;;;;4926333;28;89231;-64
2022/10/30 04:30:12;;;;;;;18.67;7.10;;;11.90;99.90;11.80;100845.00;;;;4918719;28;116319;-64
2022/10/30 04:32:52;;;;;;;11.70;6.77;;;11.80;99.90;11.80;100852.00;;;;4919949;28;88698;-65
2022/10/30 04:35:21;;;;;;;20.10;9.10;;;11.80;99.90;11.70;100849.00;;;;4919809;28;87770;-65
2022/10/30 04:38:09;;;;;;;13.17;9.13;;;11.80;99.90;11.70;100853.00;;;;4917033;28;96474;-65
2022/10/30 04:40:38;;;;;;;16.57;11.53;;;11.70;99.90;11.60;100862.00;;;;4923770;28;88201;-65
2022/10/30 04:43:05;;;;;;;16.33;10.60;;;11.70;99.90;11.60;100851.00;;;;4930893;28;87777;-64
2022/10/30 04:45:31;;;;;;;16.47;10.87;;;11.60;99.90;11.60;100844.00;;;;4918777;28;88081;-64
2022/10/30 04:48:03;;;;;;;14.80;9.97;;;11.60;99.90;11.50;100833.00;;;;4922384;28;116067;-65
2022/10/30 04:50:30;;;;;;;13.87;9.07;;;11.60;99.90;11.40;100843.00;;;;4922265;28;87303;-65
2022/10/30 04:53:04;;;;;;;12.97;8.77;;;11.50;99.90;11.40;100846.00;;;;4920247;28;98609;-65
2022/10/30 04:55:31;;;;;;;13.93;8.40;;;11.50;99.90;11.40;100857.00;;;;4919940;28;87643;-64
2022/10/30 04:57:58;;;;;;;15.27;9.93;;;11.40;99.90;11.30;100849.00;;;;4916421;28;104674;-65
2022/10/30 05:00:25;;;;;;;11.53;8.03;;;11.40;99.90;11.30;100824.00;;;;4918897;28;89414;-64
2022/10/30 05:02:51;;;;;;;9.70;6.93;;;11.30;99.90;11.30;100820.00;;;;4927676;28;87894;-64
2022/10/30 05:05:17;;;;;;;12.10;7.00;;;11.30;99.90;11.30;100832.00;;;;4924092;28;87851;-64
2022/10/30 05:07:42;;;;;;;10.57;6.40;;;11.30;99.90;11.30;100822.00;;;;4918820;28;117152;-65
2022/10/30 05:10:13;;;;;;;10.07;6.20;;;11.30;99.90;11.30;100834.00;;;;4922045;28;106005;-65
2022/10/30 05:12:42;;;;;;;13.07;7.47;;;11.30;99.90;11.30;100821.00;;;;4920671;28;88015;-64
2022/10/30 05:15:09;;;;;;;12.33;7.73;;;11.30;99.90;11.30;100809.00;;;;4921865;28;87029;-65
2022/10/30 05:17:35;;;;;;;12.77;7.07;;;11.30;99.90;11.30;100799.00;;;;4919030;28;98607;-65
2022/10/30 05:20:01;;;;;;;11.90;5.97;;;11.30;99.90;11.20;100806.00;;;;4918199;28;116637;-64
2022/10/30 05:22:26;;;;;;;8.17;6.13;;;11.30;99.90;11.30;100811.00;;;;4920938;28;109982;-65
2022/10/30 05:24:52;;;;;;;4.93;4.40;;;11.30;99.90;11.20;100819.00;;;;4929125;28;108371;-64
2022/10/30 05:27:17;;;;;;;9.17;5.60;;;11.30;99.90;11.20;100814.00;;;;4918961;28;118346;-65
2022/10/30 05:29:43;;;;;;;9.90;6.80;;;11.30;99.90;11.20;100804.00;;;;4916244;28;116224;-65
2022/10/30 05:32:09;;;;;;;5.73;4.00;;;11.30;99.90;11.20;100812.00;;;;4919016;28;110469;-65
2022/10/30 05:34:34;;;;;;;8.40;5.60;;;11.20;99.90;11.20;100812.00;;;;4917572;28;108395;-65
2022/10/30 05:37:00;;;;;;;12.10;4.90;;;11.20;99.90;11.20;100797.00;;;;4921652;28;103229;-65
2022/10/30 05:39:26;;;;;;;8.50;5.60;;;11.20;99.90;11.10;100802.00;;;;4925148;28;118613;-65
2022/10/30 05:41:52;;;;;;;6.83;5.80;;;11.20;99.90;11.10;100809.00;;;;4922956;28;87765;-65
2022/10/30 05:44:18;;;;;;;11.43;6.30;;;11.20;99.90;11.10;100805.00;;;;4926267;28;107660;-65
2022/10/30 05:46:43;;;;;;;8.43;5.07;;;11.10;99.90;11.10;100814.00;;;;4928635;28;89427;-64
2022/10/30 05:49:09;;;;;;;8.57;5.53;;;11.10;99.90;11.00;100815.00;;;;4915608;28;118549;-65
2022/10/30 05:51:35;;;;;;;12.13;6.07;;;11.10;99.90;11.00;100830.00;;;;4920767;28;107774;-65
2022/10/30 05:54:00;;;;;;;7.70;5.07;;;11.10;99.90;11.00;100826.00;;;;4925103;28;109303;-65
2022/10/30 05:56:26;;;;;;;10.20;5.67;;;11.10;99.90;11.00;100831.00;;;;4920935;28;90292;-66
2022/10/30 05:58:52;;;;;;;9.57;4.93;;;11.10;99.90;11.00;100834.00;;;;4927941;28;117442;-66
2022/10/30 06:01:18;;;;;;;10.17;6.80;;;11.00;99.90;11.00;100838.00;;;;4918966;28;111591;-66
2022/10/30 06:03:44;;;;;;;10.40;6.23;;;11.10;99.90;11.00;100853.00;;;;4922448;28;107133;-65
2022/10/30 06:06:10;;;;;;;8.57;5.93;;;11.10;99.90;11.00;100853.00;;;;4925658;28;117670;-66
2022/10/30 06:08:36;;;;;;;8.77;5.83;;;11.10;99.90;11.00;100843.00;;;;4930470;28;116018;-65
2022/10/30 06:11:02;;;;;;;6.03;5.43;;;11.10;99.90;11.00;100844.00;;;;4922054;28;88941;-64
2022/10/30 06:13:27;;;;;;;9.57;6.20;;;11.10;99.90;11.00;100837.00;;;;4916302;28;109505;-66
2022/10/30 06:15:55;;;;;;;11.23;6.47;;;11.10;99.90;11.10;100847.00;;;;4921674;28;117237;-66
2022/10/30 06:18:21;;;;;;;9.30;6.83;;;11.10;99.90;11.10;100835.00;;;;4924616;28;87966;-65
2022/10/30 06:20:47;;;;;;;11.60;7.47;;;11.10;99.90;11.10;100836.00;;;;4926701;28;87974;-65
2022/10/30 06:23:14;;;;;;;14.20;7.43;;;11.10;99.90;11.10;100835.00;;;;4928765;28;87955;-66
2022/10/30 06:25:39;;;;;;;6.70;5.53;;;11.10;99.90;11.10;100828.00;;;;4921230;28;88910;-65
2022/10/30 06:28:05;;;;;;;10.50;4.97;;;11.10;99.90;11.10;100837.00;;;;4926471;28;103615;-65
2022/10/30 06:30:32;;;;;;;14.10;6.07;;;11.10;99.90;11.10;100838.00;;;;4922970;28;111037;-65
2022/10/30 06:32:59;;;;;;;9.17;5.20;;;11.20;99.90;11.20;100832.00;;;;4920686;28;87737;-65
2022/10/30 06:35:26;;;;;;;8.97;5.63;;;11.20;99.90;11.30;100846.00;;;;4918950;28;89656;-66
2022/10/30 06:37:53;;;;;;;7.63;5.53;;;11.30;99.90;11.40;100854.00;;;;4921587;28;88717;-65
2022/10/30 06:40:19;;;;;;;10.00;6.37;;;11.40;99.90;11.40;100847.00;;;;4924525;28;87886;-65
2022/10/30 06:42:46;;;;;;;7.70;6.77;;;11.40;99.90;11.50;100838.00;;;;4927645;28;98959;-65
2022/10/30 06:45:14;;;;;;;9.93;6.33;;;11.50;99.90;11.60;100848.00;;;;4925276;28;88391;-66
2022/10/30 06:47:40;;;;;;;8.83;6.40;;;11.60;99.90;11.60;100846.00;;;;4912773;28;88009;-65
2022/10/30 06:50:09;;;;;;;14.10;6.77;;;11.60;99.90;11.70;100846.00;;;;4918606;28;110265;-65
2022/10/30 06:52:35;;;;;;;8.47;6.23;;;11.70;99.90;11.80;100858.00;;;;4916042;28;88191;-65
2022/10/30 06:55:01;;;;;;;10.43;6.77;;;11.70;99.90;11.80;100867.00;;;;4920827;28;116493;-65
2022/10/30 06:57:27;;;;;;;10.33;7.00;;;11.80;99.90;11.90;100870.00;;;;4915029;28;111261;-65
2022/10/30 06:59:52;;;;;;;11.53;6.43;;;11.90;99.90;12.10;100875.00;;;;4912752;28;88580;-65
2022/10/30 07:02:18;;;;;;;7.77;6.17;;;12.00;99.90;12.10;100872.00;;;;4916862;28;108837;-64
2022/10/30 07:04:47;;;;;;;11.83;6.80;;;12.10;99.90;12.20;100851.00;;;;4922190;28;113160;-65
2022/10/30 07:07:14;;;;;;;6.27;5.10;;;12.20;99.90;12.30;100874.00;;;;4917404;28;87955;-64
2022/10/30 07:09:39;;;;;;;8.50;5.40;;;12.30;99.90;12.40;100875.00;;;;4916140;28;87804;-64
2022/10/30 07:12:06;;;;;;;8.17;5.27;;;12.30;99.90;12.50;100863.00;;;;4918605;28;96217;-65
2022/10/30 07:14:32;;;;;;;6.17;4.77;;;12.40;99.90;12.60;100869.00;;;;4916926;28;88567;-65
2022/10/30 07:16:58;;;;;;;11.10;5.67;;;12.50;99.90;12.70;100868.00;;;;4919388;28;88706;-65
2022/10/30 07:19:24;;;;;;;10.07;5.90;;;12.60;99.90;12.80;100862.00;;;;4919039;28;87880;-64
2022/10/30 07:21:49;;;;;;;11.23;5.80;;;12.70;99.90;13.00;100859.00;;;;4911001;28;108220;-66
2022/10/30 07:24:15;;;;;;;8.13;4.97;;;12.90;99.90;13.10;100859.00;;;;4919901;28;118063;-65
2022/10/30 07:26:41;;;;;;;8.70;5.80;;;13.00;99.90;13.20;100857.00;;;;4917817;28;89727;-66
2022/10/30 07:29:07;;;;;;;7.33;5.63;;;13.10;99.90;13.30;100860.00;;;;4912433;28;111192;-66
2022/10/30 07:31:32;;;;;;;10.57;5.27;;;13.20;99.90;13.40;100877.00;;;;4915761;28;87798;-66
2022/10/30 07:33:58;;;;;;;5.57;4.93;;;13.30;99.90;13.50;100859.00;;;;4912261;28;117586;-64
2022/10/30 07:36:24;;;;;;;6.80;4.43;;;13.40;99.90;13.60;100854.00;;;;4913572;28;117229;-64
2022/10/30 07:38:51;;;;;;;7.47;5.37;;;13.60;99.90;13.70;100839.00;;;;4921017;28;109898;-63
2022/10/30 07:41:18;;;;;;;11.50;5.40;;;13.70;99.90;13.90;100850.00;;;;4918986;28;98866;-64
2022/10/30 07:43:44;;;;;;;6.53;4.30;;;13.80;99.90;14.10;100845.00;;;;4916363;28;88366;-65
2022/10/30 07:46:10;;;;;;;7.07;3.50;;;14.00;99.90;14.20;100857.00;;;;4917606;28;107184;-64
2022/10/30 07:48:36;;;;;;;7.17;4.17;;;14.10;99.90;14.50;100849.00;;;;4923079;28;96954;-64
2022/10/30 07:51:02;;;;;;;5.17;4.60;;;14.30;99.90;14.70;100849.00;;;;4913709;28;109074;-64
2022/10/30 07:53:28;;;;;;;5.77;3.70;;;14.50;99.90;14.90;100848.00;;;;4911691;28;108072;-66
2022/10/30 07:55:54;;;;;;;5.37;4.07;;;14.80;99.90;15.20;100861.00;;;;4917426;28;88125;-65
2022/10/30 07:58:20;;;;;;;5.78;3.75;;;15.00;99.90;15.50;100861.00;;;;4917477;28;102655;-65
2022/10/30 08:00:46;;;;;;;7.70;4.55;;;15.30;99.90;15.70;100857.00;;;;4920506;28;87742;-65
2022/10/30 08:03:12;;;;;;;6.53;4.78;;;15.60;99.90;16.00;100858.00;;;;4918595;28;88732;-65
2022/10/30 08:05:37;;;;;;;4.75;2.97;;;15.80;99.90;16.30;100856.00;;;;4917164;28;94096;-65
2022/10/30 08:08:04;;;;;;;4.30;3.75;;;16.10;99.90;16.70;100853.00;;;;4921036;28;109850;-65
2022/10/30 08:10:29;;;;;;;4.35;3.67;;;16.40;99.90;17.10;100849.00;;;;4920773;28;88139;-65
2022/10/30 08:12:55;;;;;;;4.68;3.65;;;16.80;99.90;17.50;100865.00;;;;4916165;28;117316;-65
2022/10/30 08:15:22;;;;;;;4.53;3.22;;;17.20;99.90;17.90;100865.00;;;;4915840;28;92699;-65
2022/10/30 08:17:49;;;;;;;3.67;3.40;;;17.60;99.90;18.20;100862.00;;;;4918084;28;87924;-64
2022/10/30 08:20:18;;;;;;;4.43;3.33;;;17.90;99.90;18.50;100863.00;;;;4917591;28;97264;-64
2022/10/30 08:22:51;;;;;;;4.25;3.35;;;18.20;99.90;18.80;100868.00;;;;4926474;28;87967;-64
2022/10/30 08:25:19;;;;;;;4.78;3.85;;;18.50;99.90;19.20;100864.00;;;;4909903;28;87998;-64
2022/10/30 08:28:00;;;;;;;4.63;2.80;;;18.90;99.90;19.50;100869.00;;;;4918095;28;96131;-64
2022/10/30 08:30:40;;;;;;;3.74;3.01;;;19.20;99.90;19.80;100866.00;;;;4497961;28;10001433;-64
2022/10/30 08:33:12;;;;;;;6.50;3.72;;;19.60;99.90;19.90;100866.00;;;;4892951;28;89019;-64
2022/10/30 08:35:38;;;;;;;2.88;2.45;;;19.70;99.90;19.90;100869.00;;;;4894002;28;88637;-64
2022/10/30 08:38:03;;;;;;;4.18;3.35;;;19.80;99.90;19.90;100859.00;;;;4891582;28;105771;-64
2022/10/30 08:40:29;;;;;;;4.82;3.13;;;19.80;99.90;20.20;100864.00;;;;4895636;28;109260;-64
2022/10/30 08:42:56;;;;;;;3.70;2.95;;;19.90;99.90;20.40;100851.00;;;;4901170;28;116898;-65
2022/10/30 08:45:23;;;;;;;2.22;1.92;;;20.10;99.90;20.60;100865.00;;;;4907893;28;89078;-65
2022/10/30 08:47:57;;;;;;;4.72;3.10;;;20.30;99.90;20.80;100856.00;;;;4900111;28;88864;-65
2022/10/30 08:50:23;;;;;;;2.90;2.60;;;20.50;99.90;21.00;100858.00;;;;4896901;28;87766;-65
2022/10/30 08:52:49;;;;;;;2.75;2.03;;;20.70;99.90;21.10;100844.00;;;;4896453;28;106497;-64
2022/10/30 08:55:14;;;;;;;3.15;2.85;;;20.90;99.90;21.30;100853.00;;;;4895665;28;116356;-65
2022/10/30 08:57:40;;;;;;;3.92;2.25;;;21.10;99.90;21.70;100846.00;;;;4895137;28;110725;-65
2022/10/30 09:00:07;;;;;;;2.50;1.98;;;21.40;99.90;21.90;100861.00;;;;4894153;28;108730;-64
2022/10/30 09:02:34;;;;;;;2.88;2.30;;;21.60;99.90;22.30;100856.00;;;;4891368;28;109217;-66
2022/10/30 09:05:00;;;;;;;4.70;2.20;;;21.90;99.90;22.60;100858.00;;;;4907751;28;111251;-64
2022/10/30 09:07:25;;;;;;;4.70;2.72;;;22.30;99.90;22.90;100859.00;;;;4892154;28;109667;-64
2022/10/30 09:09:51;;;;;;;4.47;2.40;;;22.50;99.90;23.20;100862.00;;;;4892378;28;100519;-65
2022/10/30 09:12:17;;;;;;;5.88;2.42;;;22.80;99.90;23.50;100867.00;;;;4897946;28;117935;-64
2022/10/30 09:14:42;;;;;;;8.15;2.33;;;23.20;99.90;24.00;100864.00;;;;4898710;28;99326;-66
2022/10/30 09:17:08;;;;;;;4.30;2.33;;;23.50;99.70;24.40;100864.00;;;;4899082;28;103623;-65
2022/10/30 09:19:34;;;;;;;2.22;1.90;;;23.90;99.30;24.80;100871.00;;;;4905304;28;87130;-65
2022/10/30 09:21:59;;;;;;;2.85;2.00;;;24.30;97.80;25.10;100863.00;;;;4896512;28;117304;-66
2022/10/30 09:24:25;;;;;;;3.88;1.75;;;24.70;95.80;25.30;100868.00;;;;4900153;28;88427;-65
2022/10/30 09:26:51;;;;;;;6.47;1.85;;;24.90;94.10;25.50;100877.00;;;;4901529;28;110119;-65
2022/10/30 09:29:16;;;;;;;4.25;2.47;;;25.10;93.40;25.70;100871.00;;;;4899372;28;108377;-66
2022/10/30 09:31:42;;;;;;;6.70;2.38;;;25.30;90.70;25.80;100875.00;;;;4896041;28;88954;-65
2022/10/30 09:34:08;;;;;;;3.60;2.30;;;25.40;90.30;26.00;100874.00;;;;4903189;28;88319;-65
2022/10/30 09:36:34;;;;;;;4.93;2.42;;;25.60;88.90;26.10;100879.00;;;;4897054;28;112509;-66
2022/10/30 09:39:00;;;;;;;4.90;1.63;;;25.80;86.10;26.30;100884.00;;;;4901569;28;87845;-65
2022/10/30 09:41:45;;;;;;;2.67;1.60;;;25.90;85.10;26.50;100882.00;;;;4903643;28;89936;-65
2022/10/30 09:44:50;;;;;;;3.45;2.10;;;26.20;81.50;26.70;100892.00;;;;4895336;28;88912;-65
2022/10/30 09:47:41;;;;;;;3.63;1.88;;;26.40;80.20;26.70;100891.00;;;;4895616;28;87843;-65
2022/10/30 09:50:25;;;;;;;2.88;1.77;;;26.40;75.80;26.60;100894.00;;;;4896590;28;93252;-65
2022/10/30 09:53:02;;;;;;;2.45;1.80;;;26.40;76.30;26.50;100897.00;;;;4895011;28;89126;-65
2022/10/30 09:56:05;;;;;;;4.90;1.80;;;26.30;75.10;26.50;100902.00;;;;4895630;28;89472;-66
2022/10/30 09:58:59;;;;;;;10.82;2.90;;;26.20;75.40;26.70;100908.00;;;;4893955;28;104046;-65
2022/10/30 10:01:41;;;;;;;2.55;1.70;;;26.30;75.50;27.00;100906.00;;;;4895312;28;87964;-65
2022/10/30 10:04:26;;;;;;;2.67;1.75;;;26.60;74.30;27.10;100910.00;;;;4910960;28;88424;-63
2022/10/30 10:07:01;;;;;;;1.88;1.63;;;26.80;69.60;27.20;100916.00;;;;4898285;28;87857;-66
2022/10/30 10:09:30;;;;;;;3.28;2.05;;;26.90;69.40;27.40;100908.00;;;;4894245;28;103575;-65
2022/10/30 10:12:26;;;;;;;7.25;1.88;;;27.00;69.10;27.60;100911.00;;;;4894808;28;108102;-64
2022/10/30 10:14:55;;;;;;;4.80;1.85;;;27.20;67.00;27.70;100909.00;;;;4899815;28;88130;-64
2022/10/30 10:17:34;;;;;;;3.25;1.52;;;27.30;65.80;27.50;100907.00;;;;4907671;28;88349;-64
2022/10/30 10:20:02;;;;;;;4.60;1.60;;;27.30;64.10;27.30;100911.00;;;;4897868;28;101974;-65
2022/10/30 10:22:45;;;;;;;2.78;1.60;;;27.20;60.20;27.00;100898.00;;;;4899139;28;88010;-64
2022/10/30 10:25:18;;;;;;;4.00;1.73;;;26.90;61.30;27.00;100911.00;;;;4900906;28;99612;-64
2022/10/30 10:27:56;;;;;;;2.20;1.73;;;26.80;62.30;27.10;100905.00;;;;4893890;28;88218;-65
2022/10/30 10:30:23;;;;;;;3.70;1.73;;;26.80;62.20;27.10;100914.00;;;;4898594;28;87664;-64
2022/10/30 10:33:19;;;;;;;2.35;1.42;;;26.80;60.00;27.10;100911.00;;;;4911669;28;88099;-64
2022/10/30 10:35:55;;;;;;;1.95;1.50;;;26.90;60.20;27.40;100911.00;;;;4900652;28;87937;-64
2022/10/30 10:38:36;;;;;;;2.50;1.50;;;27.00;61.10;27.70;100908.00;;;;4897791;28;103300;-64
2022/10/30 10:41:32;;;;;;;6.95;1.75;;;27.30;61.00;27.80;100908.00;;;;4893272;28;87734;-65
2022/10/30 10:44:21;;;;;;;1.48;1.17;;;27.40;59.10;28.00;100902.00;;;;4905176;28;87599;-65
2022/10/30 10:47:34;;;;;;;2.92;1.55;;;27.60;59.30;28.10;100917.00;;;;4901482;28;89419;-64
2022/10/30 10:50:20;;;;;;;1.98;1.05;;;27.70;58.90;28.40;100911.00;;;;4890653;28;89490;-69
2022/10/30 10:53:27;;;;;;;0.80;0.80;;;27.90;58.10;28.30;100904.00;;;;4896568;28;87752;-67